createdAt,value
2023-02-11T00:01:20.019Z,11.60
2023-02-11T00:03:47.666Z,11.50
2023-02-11T00:06:15.197Z,11.68
2023-02-11T00:08:43.107Z,11.38
2023-02-11T00:11:17.676Z,11.70
2023-02-11T00:13:46.423Z,12.25
2023-02-11T00:16:16.579Z,12.10
2023-02-11T00:18:44.528Z,11.75
2023-02-11T00:21:25.952Z,11.43
2023-02-11T00:23:55.009Z,12.43
2023-02-11T00:26:28.124Z,12.07
2023-02-11T00:28:57.016Z,11.48
2023-02-11T00:31:25.300Z,11.63
2023-02-11T00:33:53.689Z,11.75
2023-02-11T00:36:26.383Z,11.85
2023-02-11T00:38:55.679Z,11.35
2023-02-11T00:41:23.555Z,11.60
2023-02-11T00:43:51.443Z,11.45
2023-02-11T00:46:19.135Z,10.98
2023-02-11T00:48:46.820Z,11.75
2023-02-11T00:51:14.360Z,12.50
2023-02-11T00:53:41.978Z,11.48
2023-02-11T00:56:09.602Z,11.45
2023-02-11T00:58:37.863Z,11.10
2023-02-11T01:01:05.680Z,11.75
2023-02-11T01:03:34.033Z,11.68
2023-02-11T01:06:01.440Z,11.38
2023-02-11T01:08:29.228Z,11.13
2023-02-11T01:11:00.928Z,11.15
2023-02-11T01:13:29.957Z,11.32
2023-02-11T01:15:57.949Z,11.18
2023-02-11T01:18:26.303Z,11.18
2023-02-11T01:20:54.378Z,11.80
2023-02-11T01:23:22.594Z,11.60
2023-02-11T01:25:50.487Z,11.60
2023-02-11T01:28:20.467Z,11.73
2023-02-11T01:30:48.445Z,11.23
2023-02-11T01:33:16.147Z,10.90
2023-02-11T01:35:44.476Z,11.50
2023-02-11T01:38:24.363Z,11.52
2023-02-11T01:41:00.509Z,10.30
2023-02-11T01:43:31.176Z,10.90
2023-02-11T01:46:26.388Z,11.85
2023-02-11T01:49:17.356Z,10.57
2023-02-11T01:51:53.108Z,11.00
2023-02-11T01:54:42.872Z,10.98
2023-02-11T01:57:25.281Z,10.80
2023-02-11T01:59:52.768Z,11.38
2023-02-11T02:02:23.795Z,11.20
2023-02-11T02:05:14.473Z,11.07
2023-02-11T02:07:50.933Z,10.40
2023-02-11T02:10:22.595Z,10.48
2023-02-11T02:12:49.929Z,10.60
2023-02-11T02:15:30.314Z,10.65
2023-02-11T02:18:15.088Z,10.50
2023-02-11T02:21:04.878Z,10.37
2023-02-11T02:23:51.763Z,10.73
2023-02-11T02:26:51.463Z,10.80
2023-02-11T02:29:46.604Z,10.45
2023-02-11T02:32:26.932Z,10.13
2023-02-11T02:35:10.470Z,10.02
2023-02-11T02:37:50.876Z,10.75
2023-02-11T02:40:31.397Z,10.73
2023-02-11T02:43:01.275Z,10.07
2023-02-11T02:45:28.672Z,10.25
2023-02-11T02:47:56.701Z,10.18
2023-02-11T02:50:33.440Z,10.23
2023-02-11T02:53:31.673Z,9.93
2023-02-11T02:56:45.404Z,9.90
2023-02-11T02:59:33.210Z,9.68
2023-02-11T03:02:12.379Z,10.40
2023-02-11T03:05:02.577Z,10.82
2023-02-11T03:07:41.329Z,10.50
2023-02-11T03:10:19.462Z,10.45
2023-02-11T03:12:48.557Z,10.07
2023-02-11T03:15:19.399Z,9.52
2023-02-11T03:17:50.238Z,10.50
2023-02-11T03:20:20.253Z,9.60
2023-02-11T03:23:07.604Z,9.23
2023-02-11T03:25:40.350Z,9.95
2023-02-11T03:28:15.852Z,9.55
2023-02-11T03:30:56.091Z,9.63
2023-02-11T03:33:31.490Z,10.07
2023-02-11T03:36:08.714Z,9.90
2023-02-11T03:38:47.209Z,10.13
2023-02-11T03:41:17.786Z,10.05
2023-02-11T03:43:50.344Z,10.25
2023-02-11T03:46:21.246Z,9.85
2023-02-11T03:48:52.260Z,9.45
2023-02-11T03:51:22.074Z,9.55
2023-02-11T03:53:52.959Z,9.50
2023-02-11T03:56:23.363Z,9.65
2023-02-11T03:58:50.916Z,9.63
2023-02-11T04:01:18.563Z,9.98
2023-02-11T04:03:45.880Z,9.45
2023-02-11T04:06:13.393Z,9.00
2023-02-11T04:08:41.066Z,9.95
2023-02-11T04:11:08.584Z,9.98
2023-02-11T04:13:35.837Z,9.73
2023-02-11T04:16:03.676Z,9.43
2023-02-11T04:18:30.876Z,9.23
2023-02-11T04:20:58.323Z,9.63
2023-02-11T04:23:25.615Z,9.90
2023-02-11T04:25:53.303Z,8.70
2023-02-11T04:28:20.675Z,9.63
2023-02-11T04:30:50.567Z,9.25
2023-02-11T04:33:18.107Z,8.88
2023-02-11T04:35:45.979Z,8.43
2023-02-11T04:38:13.739Z,9.63
2023-02-11T04:40:41.283Z,9.50
2023-02-11T04:43:08.667Z,9.82
2023-02-11T04:45:36.268Z,8.82
2023-02-11T04:48:03.999Z,9.30
2023-02-11T04:50:31.530Z,9.68
2023-02-11T04:52:58.789Z,9.10
2023-02-11T04:55:26.375Z,9.60
2023-02-11T04:57:55.206Z,9.48
2023-02-11T05:00:22.838Z,9.00
2023-02-11T05:02:50.067Z,9.02
2023-02-11T05:05:17.610Z,9.40
2023-02-11T05:07:44.836Z,9.43
2023-02-11T05:10:12.314Z,9.02
2023-02-11T05:12:39.509Z,9.35
2023-02-11T05:15:07.362Z,8.77
2023-02-11T05:17:34.551Z,8.48
2023-02-11T05:20:02.186Z,9.23
2023-02-11T05:22:29.379Z,9.85
2023-02-11T05:24:57.004Z,9.15
2023-02-11T05:27:24.281Z,8.90
2023-02-11T05:29:51.738Z,8.93
2023-02-11T05:32:18.917Z,8.85
2023-02-11T05:34:46.394Z,8.38
2023-02-11T05:37:13.794Z,8.90
2023-02-11T05:39:41.354Z,8.75
2023-02-11T05:42:08.599Z,8.77
2023-02-11T05:44:36.156Z,8.98
2023-02-11T05:47:03.885Z,8.57
2023-02-11T05:49:31.341Z,8.70
2023-02-11T05:51:58.559Z,9.02
2023-02-11T05:54:26.223Z,8.48
2023-02-11T05:56:53.814Z,8.55
2023-02-11T05:59:21.246Z,9.00
2023-02-11T06:01:48.480Z,9.40
2023-02-11T06:04:15.963Z,8.32
2023-02-11T06:06:43.310Z,8.30
2023-02-11T06:09:11.777Z,8.10
2023-02-11T06:11:39.079Z,8.13
2023-02-11T06:14:06.714Z,8.77
2023-02-11T06:16:34.002Z,8.25
2023-02-11T06:19:01.514Z,8.52
2023-02-11T06:21:42.402Z,8.85
2023-02-11T06:24:12.691Z,8.60
2023-02-11T06:26:39.921Z,8.07
2023-02-11T06:29:07.824Z,8.50
2023-02-11T06:31:37.745Z,7.80
2023-02-11T06:34:05.505Z,8.27
2023-02-11T06:36:32.727Z,7.85
2023-02-11T06:39:00.284Z,8.35
2023-02-11T06:41:28.177Z,8.30
2023-02-11T06:43:55.661Z,8.57
2023-02-11T06:46:22.974Z,8.50
2023-02-11T06:48:50.563Z,8.18
2023-02-11T06:51:17.840Z,8.35
2023-02-11T06:53:46.864Z,8.68
2023-02-11T06:56:19.746Z,7.90
2023-02-11T06:58:48.326Z,7.93
2023-02-11T07:01:16.612Z,8.07
2023-02-11T07:03:45.033Z,7.53
2023-02-11T07:06:18.796Z,8.82
2023-02-11T07:08:46.888Z,7.80
2023-02-11T07:11:17.945Z,8.30
2023-02-11T07:13:45.553Z,7.72
2023-02-11T07:16:15.580Z,8.30
2023-02-11T07:18:43.456Z,8.38
2023-02-11T07:21:16.569Z,8.55
2023-02-11T07:23:44.349Z,8.27
2023-02-11T07:26:15.003Z,8.10
2023-02-11T07:28:43.584Z,8.23
2023-02-11T07:31:13.491Z,8.00
2023-02-11T07:33:41.633Z,8.10
2023-02-11T07:36:10.577Z,8.27
2023-02-11T07:38:38.871Z,8.60
2023-02-11T07:41:09.334Z,8.20
2023-02-11T07:43:37.753Z,8.40
2023-02-11T07:46:11.417Z,8.25
2023-02-11T07:48:38.987Z,8.05
2023-02-11T07:51:12.654Z,7.95
2023-02-11T07:53:40.598Z,9.40
2023-02-11T07:56:10.206Z,9.40
2023-02-11T07:58:38.083Z,9.27
2023-02-11T08:01:08.189Z,9.60
2023-02-11T08:03:36.903Z,9.02
2023-02-11T08:06:09.628Z,8.80
2023-02-11T08:08:37.305Z,8.63
2023-02-11T08:11:14.076Z,9.63
2023-02-11T08:13:42.486Z,8.55
2023-02-11T08:16:17.011Z,10.18
2023-02-11T08:18:44.572Z,10.15
2023-02-11T08:21:12.657Z,10.57
2023-02-11T08:23:41.584Z,10.52
2023-02-11T08:26:12.433Z,11.93
2023-02-11T08:28:41.512Z,11.40
2023-02-11T08:31:11.823Z,11.82
2023-02-11T08:33:40.918Z,10.88
2023-02-11T08:36:09.960Z,10.63
2023-02-11T08:38:37.975Z,10.05
2023-02-11T08:41:06.290Z,10.75
2023-02-11T08:43:34.420Z,10.25
2023-02-11T08:46:02.508Z,10.30
2023-02-11T08:48:30.216Z,9.63
2023-02-11T08:50:57.606Z,10.25
2023-02-11T08:53:25.244Z,9.98
2023-02-11T08:55:54.388Z,9.38
2023-02-11T08:58:22.616Z,9.15
2023-02-11T09:00:50.654Z,9.02
2023-02-11T09:03:18.569Z,8.82
2023-02-11T09:05:47.997Z,9.00
2023-02-11T09:08:16.727Z,8.80
2023-02-11T09:10:44.128Z,8.23
2023-02-11T09:13:12.126Z,8.52
2023-02-11T09:15:40.004Z,8.50
2023-02-11T09:18:07.791Z,8.13
2023-02-11T09:20:35.020Z,8.52
2023-02-11T09:23:02.617Z,7.60
2023-02-11T09:25:30.597Z,8.00
2023-02-11T09:27:58.273Z,8.60
2023-02-11T09:30:25.798Z,8.43
2023-02-11T09:32:53.334Z,8.00
2023-02-11T09:35:20.556Z,7.47
2023-02-11T09:37:48.083Z,7.20
2023-02-11T09:40:16.788Z,7.47
2023-02-11T09:43:01.769Z,7.90
2023-02-11T09:45:31.368Z,7.50
2023-02-11T09:48:06.268Z,7.97
2023-02-11T09:50:43.401Z,6.90
2023-02-11T09:53:29.539Z,7.53
2023-02-11T09:56:02.068Z,6.72
2023-02-11T09:58:35.965Z,7.38
2023-02-11T10:01:24.591Z,7.38
2023-02-11T10:04:13.975Z,7.38
2023-02-11T10:06:43.299Z,7.18
2023-02-11T10:09:48.521Z,6.93
2023-02-11T10:12:33.920Z,7.03
2023-02-11T10:15:08.416Z,7.30
2023-02-11T10:17:38.498Z,7.10
2023-02-11T10:20:30.932Z,7.28
2023-02-11T10:23:01.276Z,6.22
2023-02-11T10:25:38.804Z,6.78
2023-02-11T10:28:18.394Z,6.93
2023-02-11T10:30:55.364Z,6.60
2023-02-11T10:33:34.300Z,6.38
2023-02-11T10:36:03.230Z,6.45
2023-02-11T10:38:30.755Z,5.88
2023-02-11T10:40:58.351Z,6.93
2023-02-11T10:43:28.867Z,7.10
2023-02-11T10:45:57.734Z,7.38
2023-02-11T10:48:53.662Z,6.88
2023-02-11T10:51:25.572Z,6.95
2023-02-11T10:54:05.288Z,6.78
2023-02-11T10:56:36.268Z,6.95
2023-02-11T10:59:29.278Z,6.97
2023-02-11T11:02:00.944Z,7.07
2023-02-11T11:04:32.100Z,6.82
2023-02-11T11:07:22.606Z,6.90
2023-02-11T11:10:25.218Z,6.78
2023-02-11T11:12:52.732Z,6.70
2023-02-11T11:15:31.558Z,6.82
2023-02-11T11:18:28.644Z,6.55
2023-02-11T11:20:59.777Z,6.78
2023-02-11T11:23:29.795Z,6.53
2023-02-11T11:26:04.444Z,6.32
2023-02-11T11:28:39.204Z,6.90
2023-02-11T11:31:32.669Z,6.25
2023-02-11T11:34:18.892Z,6.32
2023-02-11T11:36:47.985Z,7.03
2023-02-11T11:39:30.827Z,6.63
2023-02-11T11:41:59.653Z,6.47
2023-02-11T11:44:31.011Z,6.28
2023-02-11T11:47:21.890Z,6.63
2023-02-11T11:50:00.426Z,6.80
2023-02-11T11:52:42.851Z,6.70
2023-02-11T11:55:19.145Z,6.63
2023-02-11T11:57:46.658Z,6.65
2023-02-11T12:00:20.883Z,7.22
2023-02-11T12:02:54.174Z,7.30
2023-02-11T12:05:35.560Z,6.70
2023-02-11T12:08:29.048Z,6.43
2023-02-11T12:11:26.508Z,6.30
2023-02-11T12:14:48.387Z,6.72
2023-02-11T12:17:34.492Z,6.82
2023-02-11T12:20:39.783Z,6.95
2023-02-11T12:23:25.697Z,6.07
2023-02-11T12:26:13.303Z,6.68
2023-02-11T12:28:54.157Z,6.40
2023-02-11T12:31:44.174Z,6.30
2023-02-11T12:34:54.161Z,6.50
2023-02-11T12:37:33.318Z,6.38
2023-02-11T12:40:25.672Z,6.60
2023-02-11T12:43:24.322Z,6.28
2023-02-11T12:46:13.534Z,6.57
2023-02-11T12:49:02.624Z,6.72
2023-02-11T12:52:02.271Z,6.20
2023-02-11T12:54:40.169Z,6.57
2023-02-11T12:57:17.371Z,6.82
2023-02-11T13:00:04.886Z,7.07
2023-02-11T13:02:46.540Z,6.10
2023-02-11T13:05:59.785Z,6.22
2023-02-11T13:08:48.369Z,7.13
2023-02-11T13:11:21.412Z,7.20
2023-02-11T13:13:55.927Z,6.93
2023-02-11T13:16:35.290Z,6.63
2023-02-11T13:19:08.533Z,6.38
2023-02-11T13:21:52.782Z,6.97
2023-02-11T13:24:57.801Z,6.82
2023-02-11T13:27:32.421Z,6.63
2023-02-11T13:30:29.711Z,6.70
2023-02-11T13:32:57.064Z,6.43
2023-02-11T13:35:32.108Z,6.43
2023-02-11T13:38:05.633Z,6.32
2023-02-11T13:40:37.424Z,6.55
2023-02-11T13:43:06.773Z,6.70
2023-02-11T13:45:41.788Z,6.57
2023-02-11T13:48:36.772Z,6.68
2023-02-11T13:51:04.243Z,7.10
2023-02-11T13:53:46.072Z,6.97
2023-02-11T13:56:29.292Z,6.40
2023-02-11T13:59:01.989Z,6.32
2023-02-11T14:02:24.670Z,6.53
2023-02-11T14:05:24.429Z,6.35
2023-02-11T14:08:28.546Z,6.60
2023-02-11T14:10:59.655Z,7.00
2023-02-11T14:13:27.728Z,7.00
2023-02-11T14:16:08.301Z,7.13
2023-02-11T14:18:57.252Z,7.53
2023-02-11T14:21:30.424Z,7.10
2023-02-11T14:24:10.751Z,7.05
2023-02-11T14:26:52.378Z,7.22
2023-02-11T14:29:44.933Z,7.68
2023-02-11T14:32:30.616Z,7.35
2023-02-11T14:35:15.702Z,6.85
2023-02-11T14:37:55.663Z,6.50
2023-02-11T14:40:40.463Z,7.43
2023-02-11T14:43:19.701Z,7.35
2023-02-11T14:45:53.256Z,7.57
2023-02-11T14:48:27.157Z,7.88
2023-02-11T14:51:10.493Z,7.60
2023-02-11T14:53:43.811Z,7.50
2023-02-11T14:56:26.282Z,7.68
2023-02-11T14:58:54.874Z,7.20
2023-02-11T15:01:37.543Z,6.32
2023-02-11T15:04:06.961Z,6.88
2023-02-11T15:06:42.445Z,6.63
2023-02-11T15:09:29.392Z,7.00
2023-02-11T15:11:58.043Z,6.45
2023-02-11T15:14:28.984Z,6.57
2023-02-11T15:17:03.247Z,6.30
2023-02-11T15:19:36.794Z,6.50
2023-02-11T15:22:07.028Z,6.22
2023-02-11T15:24:35.570Z,6.55
2023-02-11T15:27:18.508Z,6.85
2023-02-11T15:29:49.426Z,6.47
2023-02-11T15:32:19.793Z,6.38
2023-02-11T15:34:50.062Z,6.60
2023-02-11T15:37:26.440Z,6.65
2023-02-11T15:39:54.743Z,6.30
2023-02-11T15:42:27.773Z,6.60
2023-02-11T15:45:13.821Z,5.88
2023-02-11T15:47:49.034Z,6.53
